Time;durP1;ratioP1;P1;durP2;ratioP2;P2;SDS_P1;SDS_P2;PMS_P1;PMS_P2;Temp;Humidity;BMP_temperature;BMP_pressure;BME280_temperature;BME280_humidity;BME280_pressure;Samples;Min_cycle;Max_cycle;Signal;HPM_P1;HPM_P2
2022/08/28 00:00:53;;;;;;;0.00;0.00;;;24.60;82.30;;;;;;5113307;28;20035;-91
2022/08/28 00:03:19;;;;;;;0.00;0.00;;;24.60;81.10;;;;;;5114129;28;20026;-91
2022/08/28 00:05:45;;;;;;;0.35;0.35;;;24.60;80.70;;;;;;5115242;28;20454;-90
2022/08/28 00:08:12;;;;;;;0.00;0.00;;;24.60;81.70;;;;;;5125536;27;20023;-91
2022/08/28 00:10:38;;;;;;;0.10;0.10;;;24.60;81.80;;;;;;5134691;27;20072;-88
2022/08/28 00:13:06;;;;;;;0.00;0.00;;;24.50;81.30;;;;;;5133966;27;20499;-93
2022/08/28 00:15:36;;;;;;;0.00;0.00;;;24.60;82.00;;;;;;5131680;27;20071;-92
2022/08/28 00:18:03;;;;;;;0.00;0.00;;;24.60;82.00;;;;;;5134380;27;20076;-88
2022/08/28 00:20:31;;;;;;;0.00;0.00;;;24.60;81.30;;;;;;5134254;28;20469;-90
2022/08/28 00:22:57;;;;;;;1.08;0.55;;;24.60;81.30;;;;;;5134162;28;20113;-87
2022/08/28 00:25:25;;;;;;;0.00;0.00;;;24.50;81.40;;;;;;5133040;28;20118;-91
2022/08/28 00:27:53;;;;;;;0.00;0.00;;;24.50;81.00;;;;;;5113617;28;20130;-87
2022/08/28 00:30:21;;;;;;;0.90;0.10;;;24.50;81.80;;;;;;5113517;28;20492;-90
2022/08/28 00:32:48;;;;;;;0.00;0.00;;;24.50;80.90;;;;;;5113735;28;20076;-91
2022/08/28 00:35:16;;;;;;;0.00;0.00;;;24.50;80.90;;;;;;5114425;28;20024;-87
2022/08/28 00:37:42;;;;;;;0.25;0.25;;;24.50;81.30;;;;;;5113247;28;20020;-91
2022/08/28 00:40:08;;;;;;;0.00;0.00;;;24.50;81.40;;;;;;5113655;28;20055;-89
2022/08/28 00:42:36;;;;;;;0.25;0.25;;;24.50;81.70;;;;;;5114635;28;20052;-88
2022/08/28 00:45:03;;;;;;;0.00;0.00;;;24.50;82.20;;;;;;5113827;28;20053;-93
2022/08/28 00:47:29;;;;;;;0.20;0.20;;;24.50;82.30;;;;;;5128580;28;20031;-93
2022/08/28 00:49:56;;;;;;;0.00;0.00;;;24.50;82.80;;;;;;5134504;28;20019;-90
2022/08/28 00:52:24;;;;;;;0.00;0.00;;;24.50;82.00;;;;;;5133288;28;20500;-88
2022/08/28 00:54:55;;;;;;;0.00;0.00;;;24.50;81.70;;;;;;5133841;28;20514;-89
2022/08/28 00:57:25;;;;;;;0.10;0.10;;;24.50;82.00;;;;;;5132909;28;20134;-89
2022/08/28 00:59:51;;;;;;;0.00;0.00;;;24.60;82.70;;;;;;5133976;28;20027;-87
2022/08/28 01:13:10;;;;;;;0.00;0.00;;;24.60;82.80;;;;;;5071622;28;20849;-81
2022/08/28 01:15:37;;;;;;;0.00;0.00;;;24.70;85.30;;;;;;5071147;28;20370;-81
2022/08/28 01:18:07;;;;;;;0.00;0.00;;;24.80;85.50;;;;;;5069527;28;20115;-81
2022/08/28 01:20:36;;;;;;;0.00;0.00;;;24.80;85.20;;;;;;5071956;28;20012;-82
2022/08/28 01:23:10;;;;;;;0.00;0.00;;;24.80;85.10;;;;;;5090877;28;20107;-82
2022/08/28 01:25:37;;;;;;;0.03;0.03;;;24.80;84.90;;;;;;5089573;28;20347;-82
2022/08/28 01:28:06;;;;;;;0.00;0.00;;;24.80;85.30;;;;;;5090833;28;20025;-82
2022/08/28 01:30:33;;;;;;;0.00;0.00;;;24.80;85.40;;;;;;5088953;28;20476;-82
2022/08/28 01:32:59;;;;;;;0.00;0.00;;;24.80;85.60;;;;;;5089482;28;20036;-82
2022/08/28 01:35:32;;;;;;;0.00;0.00;;;24.70;86.20;;;;;;5089412;28;20048;-81
2022/08/28 01:37:59;;;;;;;0.90;0.25;;;24.80;86.30;;;;;;5090626;28;20458;-81
2022/08/28 01:40:30;;;;;;;0.00;0.00;;;24.70;85.90;;;;;;5089201;28;20024;-81
2022/08/28 01:43:04;;;;;;;0.00;0.00;;;24.70;86.40;;;;;;5088839;28;20792;-81
2022/08/28 01:45:30;;;;;;;0.00;0.00;;;24.70;86.50;;;;;;5090708;28;20032;-81
2022/08/28 01:47:55;;;;;;;0.20;0.20;;;24.70;86.60;;;;;;5088173;28;20016;-81
2022/08/28 01:50:21;;;;;;;0.00;0.00;;;24.70;87.00;;;;;;5089061;28;20125;-81
2022/08/28 01:52:47;;;;;;;0.00;0.00;;;24.70;86.00;;;;;;5090164;28;20071;-81
2022/08/28 01:55:13;;;;;;;0.00;0.00;;;24.60;86.10;;;;;;5090248;28;20016;-82
2022/08/28 01:57:44;;;;;;;0.00;0.00;;;24.60;86.40;;;;;;5086330;28;20084;-81
2022/08/28 02:00:11;;;;;;;0.10;0.10;;;24.60;86.00;;;;;;5088813;28;20481;-81
2022/08/28 02:02:37;;;;;;;0.00;0.00;;;24.60;85.70;;;;;;5088846;28;20470;-81
2022/08/28 02:05:03;;;;;;;0.00;0.00;;;24.60;86.20;;;;;;5088804;28;20111;-81
2022/08/28 02:07:28;;;;;;;0.32;0.32;;;24.60;85.60;;;;;;5088834;28;20048;-81
2022/08/28 02:09:54;;;;;;;0.05;0.05;;;24.60;86.10;;;;;;5089959;28;20024;-81
2022/08/28 02:12:20;;;;;;;0.15;0.10;;;24.60;86.20;;;;;;5082240;28;20551;-81
2022/08/28 02:14:46;;;;;;;0.00;0.00;;;24.50;85.80;;;;;;5076468;28;20028;-81
2022/08/28 02:17:11;;;;;;;0.00;0.00;;;24.50;85.50;;;;;;5074777;28;20493;-81
2022/08/28 02:19:37;;;;;;;0.10;0.03;;;24.50;85.80;;;;;;5075123;28;20063;-81
2022/08/28 02:22:07;;;;;;;0.47;0.30;;;24.50;86.00;;;;;;5075066;28;20064;-81
2022/08/28 02:24:33;;;;;;;;;;;24.50;85.60;;;;;;5076973;28;20482;-81
2022/08/28 02:26:59;;;;;;;0.13;0.13;;;24.50;85.30;;;;;;5076169;28;19949;-81
2022/08/28 02:29:25;;;;;;;0.00;0.00;;;24.50;85.40;;;;;;5076178;28;20107;-81
2022/08/28 02:31:51;;;;;;;0.00;0.00;;;24.50;85.60;;;;;;5073196;28;20516;-81
2022/08/28 02:34:17;;;;;;;0.20;0.20;;;24.50;85.20;;;;;;5075852;28;20119;-81
2022/08/28 02:36:43;;;;;;;1.27;0.30;;;24.40;84.00;;;;;;5076013;28;20020;-80
2022/08/28 02:39:09;;;;;;;0.80;0.45;;;24.40;84.10;;;;;;5074741;28;20050;-80
2022/08/28 02:41:35;;;;;;;0.10;0.10;;;24.40;85.60;;;;;;5074598;28;20454;-81
2022/08/28 02:44:01;;;;;;;0.00;0.00;;;24.40;85.40;;;;;;5075944;28;20056;-81
2022/08/28 02:46:26;;;;;;;0.00;0.00;;;24.40;85.50;;;;;;5073017;28;20027;-81
2022/08/28 02:48:52;;;;;;;0.00;0.00;;;24.40;84.40;;;;;;5076072;28;20024;-80
2022/08/28 02:51:18;;;;;;;0.00;0.00;;;24.30;84.40;;;;;;5074450;28;20028;-80
2022/08/28 02:53:44;;;;;;;0.00;0.00;;;24.30;85.90;;;;;;5074485;28;20126;-80
2022/08/28 02:56:10;;;;;;;0.00;0.00;;;24.30;85.80;;;;;;5070871;28;20084;-80
2022/08/28 02:58:38;;;;;;;0.00;0.00;;;24.30;85.50;;;;;;5075686;28;20024;-80
2022/08/28 03:01:09;;;;;;;0.00;0.00;;;24.30;84.90;;;;;;5075490;28;20066;-80
2022/08/28 03:03:35;;;;;;;0.00;0.00;;;24.30;85.20;;;;;;5075528;28;20024;-80
2022/08/28 03:06:02;;;;;;;0.00;0.00;;;24.30;85.40;;;;;;5074230;28;20029;-80
2022/08/28 03:08:29;;;;;;;0.00;0.00;;;24.30;86.00;;;;;;5075432;28;20032;-81
2022/08/28 03:10:55;;;;;;;0.00;0.00;;;24.30;84.90;;;;;;5070071;28;20028;-81
2022/08/28 03:13:21;;;;;;;0.52;0.38;;;24.30;84.20;;;;;;5074071;28;20557;-80
2022/08/28 03:15:46;;;;;;;0.00;0.00;;;24.30;84.40;;;;;;5075313;28;20052;-80
2022/08/28 03:18:13;;;;;;;0.38;0.38;;;24.30;83.40;;;;;;5075247;28;20059;-80
2022/08/28 03:20:40;;;;;;;0.03;0.03;;;24.30;84.60;;;;;;5075145;28;20020;-80
2022/08/28 03:26:02;;;;;;;0.00;0.00;;;24.30;85.10;;;;;;5070429;28;20505;-80
2022/08/28 03:28:33;;;;;;;0.10;0.10;;;24.30;85.90;;;;;;5073931;28;20423;-80
2022/08/28 03:30:59;;;;;;;0.10;0.10;;;24.30;85.10;;;;;;5070899;28;20060;-80
2022/08/28 03:33:25;;;;;;;0.00;0.00;;;24.30;85.20;;;;;;5074838;28;20052;-80
2022/08/28 03:35:52;;;;;;;0.00;0.00;;;24.30;86.40;;;;;;5069348;28;20029;-80
2022/08/28 03:38:18;;;;;;;0.00;0.00;;;24.30;86.60;;;;;;5065398;28;20032;-80
2022/08/28 03:40:45;;;;;;;0.00;0.00;;;24.30;87.00;;;;;;5071347;28;20485;-80
2022/08/28 03:43:14;;;;;;;0.00;0.00;;;24.30;86.90;;;;;;5072042;28;20028;-80
2022/08/28 03:45:40;;;;;;;0.32;0.32;;;24.30;87.50;;;;;;5074692;28;20074;-80
2022/08/28 03:48:07;;;;;;;0.00;0.00;;;24.30;87.30;;;;;;5074610;28;20100;-80
2022/08/28 03:50:33;;;;;;;0.08;0.08;;;24.30;87.20;;;;;;5074579;28;20100;-80
2022/08/28 03:52:59;;;;;;;0.00;0.00;;;24.30;87.60;;;;;;5074528;28;20069;-81
2022/08/28 03:55:25;;;;;;;0.00;0.00;;;24.40;88.10;;;;;;5073210;28;20474;-81
2022/08/28 03:57:51;;;;;;;0.00;0.00;;;24.30;87.80;;;;;;5066625;28;20077;-81
2022/08/28 04:00:18;;;;;;;0.00;0.00;;;24.40;87.80;;;;;;5068188;28;20020;-81
2022/08/28 04:02:44;;;;;;;0.28;0.28;;;24.30;87.90;;;;;;5053333;28;20033;-81
2022/08/28 04:05:11;;;;;;;10.10;8.30;;;24.30;88.30;;;;;;5067116;28;20025;-74
2022/08/28 04:07:38;;;;;;;17.25;9.98;;;24.30;85.00;;;;;;5074380;28;20091;-74
2022/08/28 04:10:05;;;;;;;8.48;6.00;;;24.20;85.20;;;;;;5074802;28;20013;-76
2022/08/28 04:12:30;;;;;;;5.32;2.72;;;24.00;85.20;;;;;;5073987;28;20052;-72
2022/08/28 04:14:56;;;;;;;2.90;2.47;;;23.80;85.20;;;;;;5074236;28;20028;-72
2022/08/28 04:17:22;;;;;;;0.95;0.95;;;23.60;85.30;;;;;;5074199;28;20028;-74
2022/08/28 04:19:51;;;;;;;1.80;1.35;;;23.50;86.80;;;;;;5068851;28;20025;-78
2022/08/28 04:22:17;;;;;;;0.65;0.65;;;23.30;86.20;;;;;;5065324;28;20054;-78
2022/08/28 04:24:43;;;;;;;0.65;0.57;;;23.20;86.60;;;;;;5072892;28;20025;-78
2022/08/28 04:27:08;;;;;;;0.82;0.82;;;23.20;86.90;;;;;;5073694;28;20154;-78
2022/08/28 04:29:34;;;;;;;0.13;0.13;;;23.20;87.10;;;;;;5074199;28;20064;-78
2022/08/28 04:32:01;;;;;;;0.10;0.10;;;23.20;87.90;;;;;;5073875;28;20021;-78
2022/08/28 04:34:26;;;;;;;0.00;0.00;;;23.30;88.70;;;;;;5074193;28;20025;-77
2022/08/28 04:36:53;;;;;;;0.22;0.20;;;23.30;89.20;;;;;;5071967;28;20090;-78
2022/08/28 04:39:19;;;;;;;0.00;0.00;;;23.40;89.40;;;;;;5072564;28;20364;-79
2022/08/28 04:41:44;;;;;;;0.10;0.10;;;23.40;89.90;;;;;;5072457;28;20031;-78
2022/08/28 04:44:10;;;;;;;0.00;0.00;;;23.40;89.80;;;;;;5072643;28;20032;-78
2022/08/28 04:46:36;;;;;;;0.00;0.00;;;23.50;90.00;;;;;;5073753;28;20442;-78
2022/08/28 04:49:03;;;;;;;0.00;0.00;;;23.60;90.20;;;;;;5072465;28;20025;-77
2022/08/28 04:51:30;;;;;;;0.00;0.00;;;23.60;89.20;;;;;;5065918;28;20025;-78
2022/08/28 04:53:57;;;;;;;0.00;0.00;;;23.60;89.60;;;;;;5051495;28;20386;-78
2022/08/28 04:56:23;;;;;;;0.00;0.00;;;23.70;90.00;;;;;;5052397;28;20391;-78
2022/08/28 04:58:49;;;;;;;0.00;0.00;;;23.70;90.00;;;;;;5060268;28;20025;-78
2022/08/28 05:01:18;;;;;;;0.00;0.00;;;23.70;89.90;;;;;;5073540;28;20039;-78
2022/08/28 05:03:45;;;;;;;0.00;0.00;;;23.80;90.00;;;;;;5073694;28;20020;-78
2022/08/28 05:06:13;;;;;;;0.70;0.32;;;23.80;90.20;;;;;;5073515;28;20032;-79
2022/08/28 05:08:39;;;;;;;0.00;0.00;;;23.90;90.30;;;;;;5073826;28;20496;-78
2022/08/28 05:11:10;;;;;;;0.00;0.00;;;23.90;90.40;;;;;;5062246;28;20044;-78
2022/08/28 05:13:36;;;;;;;0.17;0.17;;;23.90;90.10;;;;;;5041494;28;20064;-78
2022/08/28 05:16:03;;;;;;;0.00;0.00;;;23.90;90.10;;;;;;5032258;28;20061;-78
2022/08/28 05:18:29;;;;;;;0.00;0.00;;;24.00;90.30;;;;;;5031945;28;20029;-78
2022/08/28 05:20:54;;;;;;;0.00;0.00;;;24.00;90.30;;;;;;5033344;28;20106;-78
2022/08/28 05:23:20;;;;;;;0.00;0.00;;;24.00;90.10;;;;;;5033368;28;20383;-78
2022/08/28 05:25:47;;;;;;;0.00;0.00;;;24.00;90.20;;;;;;5033432;28;20468;-78
2022/08/28 05:28:15;;;;;;;0.00;0.00;;;24.00;90.10;;;;;;5047641;28;20021;-78
2022/08/28 05:30:42;;;;;;;0.00;0.00;;;24.00;90.10;;;;;;5053303;28;20033;-78
2022/08/28 05:33:10;;;;;;;0.00;0.00;;;24.00;90.30;;;;;;5051939;28;20063;-78
2022/08/28 05:35:38;;;;;;;0.08;0.08;;;24.00;89.30;;;;;;5053487;28;20100;-78
2022/08/28 05:38:05;;;;;;;0.00;0.00;;;24.00;89.80;;;;;;5053228;28;20485;-78
2022/08/28 05:40:30;;;;;;;0.00;0.00;;;24.10;89.70;;;;;;5052044;28;20021;-79
2022/08/28 05:42:56;;;;;;;0.00;0.00;;;24.10;90.20;;;;;;5059120;28;20035;-78
2022/08/28 05:45:22;;;;;;;0.30;0.30;;;24.10;90.20;;;;;;5073211;28;20071;-78
2022/08/28 05:47:50;;;;;;;0.05;0.00;;;24.10;90.30;;;;;;5074343;28;20024;-78
2022/08/28 05:50:15;;;;;;;0.00;0.00;;;24.10;90.20;;;;;;5075616;28;20021;-78
2022/08/28 05:52:42;;;;;;;0.13;0.13;;;24.10;90.40;;;;;;5075661;28;20029;-78
2022/08/28 05:55:10;;;;;;;0.22;0.03;;;24.10;89.30;;;;;;5076829;28;20033;-78
2022/08/28 05:57:37;;;;;;;0.00;0.00;;;24.10;90.10;;;;;;5075704;28;20031;-78
2022/08/28 06:00:05;;;;;;;0.00;0.00;;;24.10;89.40;;;;;;5073015;28;20095;-78
2022/08/28 06:02:31;;;;;;;0.35;0.35;;;24.10;90.00;;;;;;5076858;28;20477;-78
2022/08/28 06:04:56;;;;;;;0.05;0.05;;;24.10;90.00;;;;;;5075368;28;20055;-78
2022/08/28 06:07:23;;;;;;;0.00;0.00;;;24.10;90.20;;;;;;5076855;28;20371;-78
2022/08/28 06:09:48;;;;;;;0.10;0.00;;;24.10;90.40;;;;;;5076539;28;20031;-78
2022/08/28 06:12:14;;;;;;;0.22;0.22;;;24.10;90.20;;;;;;5074972;28;20060;-78
2022/08/28 06:14:40;;;;;;;0.00;0.00;;;24.10;90.30;;;;;;5071781;28;20067;-78
2022/08/28 06:17:06;;;;;;;0.00;0.00;;;24.10;90.00;;;;;;5076391;28;20394;-78
2022/08/28 06:19:34;;;;;;;0.10;0.10;;;24.10;90.20;;;;;;5076287;28;20024;-78
2022/08/28 06:22:02;;;;;;;0.00;0.00;;;24.10;90.40;;;;;;5076249;28;20029;-78
2022/08/28 06:24:29;;;;;;;0.10;0.10;;;24.10;90.30;;;;;;5074985;28;20425;-78
2022/08/28 06:26:55;;;;;;;0.10;0.05;;;24.10;90.60;;;;;;5074899;28;20017;-78
2022/08/28 06:29:21;;;;;;;0.00;0.00;;;24.10;90.60;;;;;;5071978;28;20028;-78
2022/08/28 06:31:47;;;;;;;0.00;0.00;;;24.20;90.50;;;;;;5074894;28;20494;-78
2022/08/28 06:34:13;;;;;;;0.00;0.00;;;24.10;90.50;;;;;;5075895;28;20071;-78
2022/08/28 06:36:41;;;;;;;0.00;0.00;;;24.20;90.20;;;;;;5076038;28;20021;-78
2022/08/28 06:39:08;;;;;;;0.00;0.00;;;24.20;90.20;;;;;;5075901;28;20355;-78
2022/08/28 06:41:39;;;;;;;0.00;0.00;;;24.20;90.40;;;;;;5074644;28;20028;-78
2022/08/28 06:44:06;;;;;;;0.00;0.00;;;24.20;90.50;;;;;;5072784;28;20093;-78
2022/08/28 06:46:33;;;;;;;0.00;0.00;;;24.20;90.60;;;;;;5075863;28;20044;-78
2022/08/28 06:49:04;;;;;;;0.03;0.03;;;24.20;90.20;;;;;;5075467;28;20408;-78
2022/08/28 06:51:30;;;;;;;0.00;0.00;;;24.20;89.10;;;;;;5073135;28;20166;-78
2022/08/28 06:53:56;;;;;;;0.28;0.28;;;24.20;90.00;;;;;;5075382;28;20056;-78
2022/08/28 06:56:22;;;;;;;0.10;0.00;;;24.20;90.20;;;;;;5075522;28;20020;-78
2022/08/28 06:58:49;;;;;;;0.10;0.10;;;24.20;90.40;;;;;;5074061;28;20025;-78
2022/08/28 07:01:21;;;;;;;0.00;0.00;;;24.20;90.40;;;;;;5073572;28;20475;-77
2022/08/28 07:03:48;;;;;;;0.00;0.00;;;24.20;89.40;;;;;;5074009;28;20017;-73
2022/08/28 07:06:15;;;;;;;1.40;1.08;;;24.20;87.90;;;;;;5075716;28;20021;-72
2022/08/28 07:08:43;;;;;;;6.68;3.28;;;24.10;88.20;;;;;;5075292;28;20099;-74
2022/08/28 07:11:15;;;;;;;6.68;5.50;;;24.10;87.50;;;;;;5074968;28;20048;-74
2022/08/28 07:13:42;;;;;;;11.07;5.65;;;24.00;87.90;;;;;;5076563;28;20082;-73
2022/08/28 07:16:09;;;;;;;12.35;3.80;;;24.00;88.30;;;;;;5070417;28;20029;-76
2022/08/28 07:18:35;;;;;;;6.05;4.65;;;23.90;87.70;;;;;;5073643;28;20055;-76
2022/08/28 07:21:01;;;;;;;1.45;1.38;;;23.80;87.70;;;;;;5074805;28;20036;-76
2022/08/28 07:23:29;;;;;;;0.75;0.75;;;23.70;88.20;;;;;;5070426;28;20020;-76
2022/08/28 07:25:55;;;;;;;1.95;1.85;;;23.60;88.50;;;;;;5074724;28;20471;-76
2022/08/28 07:28:21;;;;;;;0.20;0.20;;;23.60;88.80;;;;;;5072017;28;20382;-76
2022/08/28 07:30:59;;;;;;;2.05;1.10;;;23.50;89.20;;;;;;5074979;28;20016;-76
2022/08/28 07:33:27;;;;;;;1.48;0.30;;;23.40;89.00;;;;;;5074773;28;20059;-76
2022/08/28 07:35:54;;;;;;;0.20;0.20;;;23.40;90.10;;;;;;5073189;28;20029;-76
2022/08/28 07:38:20;;;;;;;0.40;0.40;;;23.30;90.00;;;;;;5069234;28;20024;-76
2022/08/28 07:40:45;;;;;;;1.02;1.02;;;23.30;89.70;;;;;;5073555;28;20155;-76
2022/08/28 07:45:58;;;;;;;0.10;0.10;;;23.20;90.00;;;;;;5074991;28;20028;-76
2022/08/28 07:48:24;;;;;;;0.10;0.10;;;23.20;90.00;;;;;;5074563;28;20017;-76
2022/08/28 07:50:49;;;;;;;0.17;0.17;;;23.20;90.10;;;;;;5074593;28;20027;-76
2022/08/28 07:53:15;;;;;;;0.15;0.15;;;23.10;90.20;;;;;;5074946;28;20024;-76
2022/08/28 07:55:41;;;;;;;0.43;0.10;;;23.10;90.40;;;;;;5071563;28;20028;-76
2022/08/28 07:58:06;;;;;;;0.00;0.00;;;23.10;90.30;;;;;;5074976;28;20027;-76
2022/08/28 08:00:32;;;;;;;0.10;0.10;;;23.10;90.40;;;;;;5071480;28;20100;-76
2022/08/28 08:02:57;;;;;;;0.30;0.30;;;23.10;90.40;;;;;;5075041;28;20449;-76
2022/08/28 08:05:24;;;;;;;0.00;0.00;;;23.10;90.50;;;;;;5074576;28;20374;-76
2022/08/28 08:07:51;;;;;;;0.25;0.25;;;23.10;90.50;;;;;;5074582;28;20020;-75
2022/08/28 08:10:17;;;;;;;0.47;0.47;;;23.10;90.70;;;;;;5059511;28;20490;-76
2022/08/28 08:12:43;;;;;;;1.75;0.65;;;23.10;90.80;;;;;;5062444;28;20131;-76
2022/08/28 08:15:11;;;;;;;0.08;0.08;;;23.20;90.80;;;;;;5071721;28;20425;-76
2022/08/28 08:17:36;;;;;;;0.65;0.22;;;23.20;90.50;;;;;;5074168;28;20078;-76
2022/08/28 08:20:03;;;;;;;0.10;0.10;;;23.10;90.40;;;;;;5074058;28;20024;-77
2022/08/28 08:22:29;;;;;;;0.10;0.10;;;23.20;90.60;;;;;;5068185;28;20445;-76
2022/08/28 08:24:54;;;;;;;0.15;0.15;;;23.20;90.60;;;;;;5073183;28;20028;-75
2022/08/28 08:27:20;;;;;;;1.02;0.93;;;23.20;90.70;;;;;;5074097;28;20021;-76
2022/08/28 08:29:47;;;;;;;0.28;0.28;;;23.20;90.60;;;;;;5072919;28;20386;-76
2022/08/28 08:32:14;;;;;;;0.20;0.20;;;23.20;90.60;;;;;;5058428;28;20021;-76
2022/08/28 08:34:42;;;;;;;0.22;0.22;;;23.30;90.60;;;;;;5054452;28;20020;-76
2022/08/28 08:37:08;;;;;;;0.10;0.10;;;23.30;90.60;;;;;;5053851;28;20049;-76
2022/08/28 08:39:35;;;;;;;4.38;0.45;;;23.30;90.60;;;;;;5058069;28;20032;-76
2022/08/28 08:42:05;;;;;;;0.20;0.20;;;23.40;90.90;;;;;;5073666;28;20429;-75
2022/08/28 08:44:42;;;;;;;0.28;0.28;;;23.50;90.80;;;;;;5073826;28;20021;-76
2022/08/28 08:47:21;;;;;;;0.10;0.10;;;23.40;90.70;;;;;;5073027;28;20021;-76
2022/08/28 08:50:21;;;;;;;0.00;0.00;;;23.40;90.60;;;;;;5074418;28;20021;-76
2022/08/28 08:53:17;;;;;;;0.00;0.00;;;23.40;90.70;;;;;;5050934;28;20461;-76
2022/08/28 08:55:46;;;;;;;0.30;0.30;;;23.50;90.60;;;;;;5069931;28;20110;-75
2022/08/28 08:58:27;;;;;;;0.20;0.20;;;23.60;90.60;;;;;;5074378;28;20032;-76
2022/08/28 09:01:15;;;;;;;0.00;0.00;;;23.60;90.60;;;;;;5073549;28;20024;-76
2022/08/28 09:03:59;;;;;;;0.05;0.05;;;23.60;90.60;;;;;;5072808;28;20024;-76
2022/08/28 09:06:38;;;;;;;0.40;0.40;;;23.60;90.70;;;;;;5074294;28;20021;-75
2022/08/28 09:09:09;;;;;;;0.20;0.20;;;23.60;90.60;;;;;;5072418;28;20025;-75
2022/08/28 09:11:57;;;;;;;0.00;0.00;;;23.70;90.50;;;;;;5071603;28;20048;-76
2022/08/28 09:14:31;;;;;;;1.38;1.02;;;23.70;90.50;;;;;;5072748;28;20063;-76
2022/08/28 09:16:58;;;;;;;0.10;0.10;;;23.70;90.50;;;;;;5074197;28;20024;-76
2022/08/28 09:19:23;;;;;;;0.08;0.08;;;23.70;90.50;;;;;;5072317;28;20029;-75
2022/08/28 09:21:50;;;;;;;1.05;0.45;;;23.80;90.70;;;;;;5073488;28;20178;-76
2022/08/28 09:24:27;;;;;;;1.52;0.15;;;23.80;90.70;;;;;;5076799;28;20048;-76
2022/08/28 09:26:56;;;;;;;0.00;0.00;;;23.80;90.50;;;;;;5073904;28;20021;-75
2022/08/28 09:29:35;;;;;;;2.45;0.68;;;23.80;90.70;;;;;;5037904;28;20021;-75
2022/08/28 09:32:28;;;;;;;0.25;0.25;;;23.90;90.70;;;;;;5037622;28;20030;-75
2022/08/28 09:35:15;;;;;;;0.00;0.00;;;23.90;90.50;;;;;;5037560;28;20022;-75
2022/08/28 09:37:43;;;;;;;0.22;0.22;;;23.90;90.60;;;;;;5036522;28;20034;-75
2022/08/28 09:40:18;;;;;;;0.40;0.30;;;23.90;90.50;;;;;;5037262;28;20359;-76
2022/08/28 09:45:58;;;;;;;0.13;0.13;;;24.00;90.30;;;;;;5077927;28;20497;-76
2022/08/28 09:48:42;;;;;;;0.30;0.10;;;24.00;90.10;;;;;;5076500;28;20506;-76
2022/08/28 09:51:08;;;;;;;0.10;0.10;;;24.00;89.50;;;;;;5076876;28;20095;-76
2022/08/28 09:54:01;;;;;;;0.50;0.50;;;24.00;89.40;;;;;;5076899;28;20063;-75
2022/08/28 09:56:33;;;;;;;0.00;0.00;;;24.00;89.60;;;;;;5057466;28;20145;-76
2022/08/28 09:59:13;;;;;;;0.30;0.00;;;24.00;89.50;;;;;;5036837;28;20107;-76
2022/08/28 10:02:10;;;;;;;0.00;0.00;;;24.00;89.50;;;;;;5074256;28;20524;-76
2022/08/28 10:05:02;;;;;;;0.03;0.03;;;24.10;89.50;;;;;;5076627;28;20493;-76
2022/08/28 10:07:55;;;;;;;0.28;0.20;;;24.10;89.50;;;;;;5076836;28;20021;-76
2022/08/28 10:10:44;;;;;;;0.20;0.20;;;24.10;89.20;;;;;;5076836;28;20103;-76
2022/08/28 10:13:13;;;;;;;0.00;0.00;;;24.10;89.10;;;;;;5076515;28;20498;-75
2022/08/28 10:15:44;;;;;;;1.27;0.95;;;24.10;88.90;;;;;;5074638;28;20048;-76
2022/08/28 10:18:33;;;;;;;0.35;0.35;;;24.10;88.50;;;;;;5076818;28;20029;-76
2022/08/28 10:21:17;;;;;;;0.13;0.13;;;24.20;88.00;;;;;;5063559;28;20039;-76
2022/08/28 10:23:55;;;;;;;0.00;0.00;;;24.10;87.70;;;;;;5075281;28;20374;-75
2022/08/28 10:26:25;;;;;;;0.00;0.00;;;24.10;87.80;;;;;;5073196;28;20066;-76
2022/08/28 10:29:02;;;;;;;0.00;0.00;;;24.20;87.50;;;;;;5075414;28;20370;-76
2022/08/28 10:31:39;;;;;;;1.02;1.02;;;24.20;87.30;;;;;;5075357;28;20032;-76
2022/08/28 10:34:42;;;;;;;0.70;0.70;;;24.20;87.50;;;;;;5074349;28;20024;-76
2022/08/28 10:37:23;;;;;;;0.40;0.40;;;24.20;87.40;;;;;;5076548;28;20030;-76
2022/08/28 10:39:56;;;;;;;0.20;0.20;;;24.20;87.60;;;;;;5075249;28;20401;-75
2022/08/28 10:42:32;;;;;;;0.30;0.30;;;24.30;87.40;;;;;;5073406;28;20037;-75
2022/08/28 10:45:04;;;;;;;0.30;0.10;;;24.30;87.40;;;;;;5075926;28;20020;-75
2022/08/28 10:47:33;;;;;;;0.25;0.25;;;24.30;87.40;;;;;;5076404;28;20114;-76
2022/08/28 10:50:05;;;;;;;0.27;0.27;;;24.30;87.40;;;;;;5076351;28;20024;-75
2022/08/28 10:53:08;;;;;;;0.32;0.32;;;24.30;87.20;;;;;;5075690;28;20028;-75
2022/08/28 10:55:54;;;;;;;0.32;0.32;;;24.30;87.20;;;;;;5073724;28;20055;-76
2022/08/28 10:58:23;;;;;;;0.17;0.17;;;24.30;87.20;;;;;;5073934;28;20039;-75
2022/08/28 11:00:59;;;;;;;0.17;0.17;;;24.40;87.30;;;;;;5075822;28;20344;-75
2022/08/28 11:03:28;;;;;;;0.10;0.10;;;24.40;87.30;;;;;;5076274;28;20032;-76
2022/08/28 11:06:32;;;;;;;0.68;0.55;;;24.40;87.00;;;;;;5073008;28;20020;-76
2022/08/28 11:09:23;;;;;;;0.35;0.25;;;24.40;87.00;;;;;;5074090;28;20437;-76
2022/08/28 11:11:47;;;;;;;;;;;24.40;86.90;;;;;;5075654;28;20059;-76
2022/08/28 11:14:38;;;;;;;1.45;0.22;;;24.40;86.90;;;;;;5075182;28;19904;-76
2022/08/28 11:17:29;;;;;;;0.00;0.00;;;24.40;86.80;;;;;;5035319;28;20034;-75
2022/08/28 11:20:16;;;;;;;0.00;0.00;;;24.40;86.40;;;;;;5035712;28;20021;-75
2022/08/28 11:22:53;;;;;;;0.15;0.15;;;24.50;86.40;;;;;;5035167;28;20391;-76
2022/08/28 11:25:53;;;;;;;0.00;0.00;;;24.50;86.40;;;;;;5035463;28;20049;-76
2022/08/28 11:28:21;;;;;;;0.20;0.20;;;24.50;86.00;;;;;;5033874;28;20018;-75
2022/08/28 11:31:08;;;;;;;0.00;0.00;;;24.50;85.80;;;;;;5044277;28;20472;-76
2022/08/28 11:33:46;;;;;;;0.15;0.08;;;24.50;85.60;;;;;;5027911;28;20040;-76
2022/08/28 11:36:32;;;;;;;0.93;0.00;;;24.50;85.00;;;;;;5035120;28;20030;-77
2022/08/28 11:39:16;;;;;;;0.70;0.70;;;24.60;85.40;;;;;;5034493;28;20072;-76
2022/08/28 11:42:10;;;;;;;0.25;0.25;;;24.60;85.30;;;;;;5034697;28;20399;-76
2022/08/28 11:44:42;;;;;;;0.50;0.50;;;24.60;83.90;;;;;;5033413;28;20024;-76
2022/08/28 11:47:45;;;;;;;1.15;0.63;;;24.60;82.30;;;;;;5041442;28;20028;-76
2022/08/28 11:50:16;;;;;;;0.00;0.00;;;24.60;81.50;;;;;;5032673;28;20021;-77
2022/08/28 11:52:42;;;;;;;0.38;0.38;;;24.60;79.70;;;;;;5068137;28;20402;-76
2022/08/28 11:55:08;;;;;;;0.65;0.65;;;24.60;80.50;;;;;;5073842;28;20031;-76
2022/08/28 11:57:51;;;;;;;0.25;0.25;;;24.70;80.80;;;;;;5067346;28;20033;-76
2022/08/28 12:00:36;;;;;;;0.60;0.32;;;24.80;81.50;;;;;;5073382;28;20024;-76
2022/08/28 12:03:05;;;;;;;0.10;0.10;;;24.80;81.20;;;;;;5073468;28;20052;-76
2022/08/28 12:05:30;;;;;;;0.10;0.10;;;24.80;81.60;;;;;;5073243;28;20017;-77
2022/08/28 12:08:01;;;;;;;0.00;0.00;;;24.80;79.80;;;;;;5070758;28;20360;-77
2022/08/28 12:10:28;;;;;;;0.10;0.10;;;24.80;80.80;;;;;;5072833;28;20028;-77
2022/08/28 12:12:53;;;;;;;0.00;0.00;;;24.80;81.30;;;;;;5072745;28;20049;-78
2022/08/28 12:15:28;;;;;;;0.05;0.03;;;24.90;81.60;;;;;;5074102;28;20031;-78
2022/08/28 12:18:04;;;;;;;0.00;0.00;;;24.90;81.80;;;;;;5074071;28;20087;-78
2022/08/28 12:20:48;;;;;;;0.20;0.15;;;24.90;81.70;;;;;;5072776;28;20059;-78
2022/08/28 12:23:54;;;;;;;1.58;0.15;;;24.90;81.80;;;;;;5071184;28;20032;-78
2022/08/28 12:26:28;;;;;;;1.42;0.35;;;24.90;81.90;;;;;;5073977;28;20032;-79
2022/08/28 12:28:54;;;;;;;40.53;2.38;;;24.90;81.50;;;;;;5074046;28;20017;-79
2022/08/28 12:34:48;;;;;;;0.38;0.38;;;24.90;81.50;;;;;;5073736;28;20386;-78
2022/08/28 12:37:41;;;;;;;0.00;0.00;;;25.00;81.50;;;;;;5053025;28;20032;-77
2022/08/28 12:40:10;;;;;;;0.20;0.20;;;25.00;81.70;;;;;;5055913;28;20033;-78
2022/08/28 12:42:46;;;;;;;0.10;0.10;;;25.00;81.50;;;;;;5073740;28;20017;-78
2022/08/28 12:45:20;;;;;;;0.10;0.10;;;25.00;81.70;;;;;;5073721;28;20099;-78
2022/08/28 12:47:47;;;;;;;0.00;0.00;;;25.00;81.60;;;;;;5074030;28;20100;-78
2022/08/28 12:50:28;;;;;;;0.10;0.10;;;25.00;81.60;;;;;;5072433;28;20368;-78
2022/08/28 12:52:58;;;;;;;0.15;0.15;;;25.10;81.90;;;;;;5034186;28;20029;-77
2022/08/28 12:55:25;;;;;;;0.10;0.10;;;25.10;81.70;;;;;;5033701;28;20432;-78
2022/08/28 12:57:51;;;;;;;0.00;0.00;;;25.10;81.80;;;;;;5040571;28;20504;-78
2022/08/28 13:00:24;;;;;;;0.52;0.20;;;25.10;81.60;;;;;;5073544;28;20025;-77
2022/08/28 13:02:55;;;;;;;0.77;0.32;;;25.10;80.80;;;;;;5066346;28;20028;-78
2022/08/28 13:05:38;;;;;;;0.30;0.30;;;25.10;81.60;;;;;;5058473;28;20032;-72
2022/08/28 13:08:07;;;;;;;20.25;11.20;;;25.20;81.30;;;;;;5073362;28;20074;-73
2022/08/28 13:10:38;;;;;;;25.77;16.05;;;25.20;81.50;;;;;;5059649;28;20017;-75
2022/08/28 13:13:35;;;;;;;33.67;16.42;;;25.20;81.30;;;;;;5070978;28;20058;-75
2022/08/28 13:16:12;;;;;;;17.13;10.77;;;25.20;81.00;;;;;;5059121;28;20085;-75
2022/08/28 13:18:49;;;;;;;15.20;8.98;;;25.20;81.10;;;;;;5063075;28;20025;-76
2022/08/28 13:21:17;;;;;;;5.97;3.88;;;25.20;80.30;;;;;;5067362;28;20033;-76
2022/08/28 13:23:53;;;;;;;5.97;3.85;;;25.20;80.60;;;;;;5072320;28;20024;-76
2022/08/28 13:26:24;;;;;;;2.05;1.27;;;25.30;80.40;;;;;;5073533;28;20536;-76
2022/08/28 13:28:50;;;;;;;1.30;1.23;;;25.20;80.30;;;;;;5073181;28;20500;-76